KSNH

Savannah-Hardin County Airport

Savannah, Tennessee, USA
METAR KSNH 260355Z AUTO 00000KT 10SM BKN034 BKN047 OVC070 21/20 A2992 RMK A01 P0008
Observed Flight Rules
May-26 @ 03:55 UTC (22 minutes ago) Visual Flight Rules
Visibility Clouds
10 miles
  • Broken at 3,400' AGL
  • Broken at 4,700' AGL
  • Overcast at 7,000' AGL
Temperatures Readings Precipitation
Current 21°C / 70°F
Dewpoint 20°C / 68°F
Humidity 94%
Altimeter 29.92" Hg
Pressure 1013 hPa
Elevation 144
Current Rain 0.08
METAR KSNH 260355Z AUTO 00000KT 10SM BKN034 BKN047 OVC070 21/20 A2992 RMK A01 P0008
Observed Flight Rules
May-26 @ 03:55 UTC
(22 minutes ago)
VFR
Clouds
  • Broken at 3,400' AGL
  • Broken at 4,700' AGL
  • Overcast at 7,000' AGL
Temperature Dewpoint
21°C / 70°F 20°C / 68°F
Humidity Altimeter Pressure
94% 29.92" Hg 1013 hPa
Current Rain
0.08